sensor_id;sensor_type;location;lat;lon;timestamp;temperature;humidity
31725;DHT22;18306;40.960;14.836;2022-12-29T00:01:42;10.30;99.90
31725;DHT22;18306;40.960;14.836;2022-12-29T00:04:12;10.30;99.90
31725;DHT22;18306;40.960;14.836;2022-12-29T00:06:40;10.40;99.90
31725;DHT22;18306;40.960;14.836;2022-12-29T00:09:07;10.30;99.90
31725;DHT22;18306;40.960;14.836;2022-12-29T00:11:34;10.20;99.90
31725;DHT22;18306;40.960;14.836;2022-12-29T00:14:02;10.20;99.90
31725;DHT22;18306;40.960;14.836;2022-12-29T00:16:47;10.20;99.90
31725;DHT22;18306;40.960;14.836;2022-12-29T00:19:15;10.10;99.90
31725;DHT22;18306;40.960;14.836;2022-12-29T00:22:01;10.20;99.90
31725;DHT22;18306;40.960;14.836;2022-12-29T00:24:47;11.10;99.90
31725;DHT22;18306;40.960;14.836;2022-12-29T00:27:32;10.10;99.90
31725;DHT22;18306;40.960;14.836;2022-12-29T00:30:21;10.10;99.90
31725;DHT22;18306;40.960;14.836;2022-12-29T00:33:14;10.10;99.90
31725;DHT22;18306;40.960;14.836;2022-12-29T00:38:40;10.20;99.90
31725;DHT22;18306;40.960;14.836;2022-12-29T00:41:27;10.20;99.90
31725;DHT22;18306;40.960;14.836;2022-12-29T00:44:13;10.00;99.90
31725;DHT22;18306;40.960;14.836;2022-12-29T00:46:42;10.00;99.90
31725;DHT22;18306;40.960;14.836;2022-12-29T00:49:11;9.90;99.90
31725;DHT22;18306;40.960;14.836;2022-12-29T00:52:03;9.90;99.90
31725;DHT22;18306;40.960;14.836;2022-12-29T00:54:36;9.90;99.90
31725;DHT22;18306;40.960;14.836;2022-12-29T00:57:05;9.90;99.90
31725;DHT22;18306;40.960;14.836;2022-12-29T00:59:38;9.90;99.90
31725;DHT22;18306;40.960;14.836;2022-12-29T01:02:06;9.90;99.90
31725;DHT22;18306;40.960;14.836;2022-12-29T01:04:33;10.00;99.90
31725;DHT22;18306;40.960;14.836;2022-12-29T01:07:01;10.00;99.90
31725;DHT22;18306;40.960;14.836;2022-12-29T01:09:28;9.90;99.90
31725;DHT22;18306;40.960;14.836;2022-12-29T01:12:14;10.00;99.90
31725;DHT22;18306;40.960;14.836;2022-12-29T01:14:42;9.90;99.90
31725;DHT22;18306;40.960;14.836;2022-12-29T01:17:10;9.90;99.90
31725;DHT22;18306;40.960;14.836;2022-12-29T01:19:37;9.90;99.90
31725;DHT22;18306;40.960;14.836;2022-12-29T01:22:04;9.90;99.90
31725;DHT22;18306;40.960;14.836;2022-12-29T01:24:31;9.90;99.90
31725;DHT22;18306;40.960;14.836;2022-12-29T01:26:58;9.80;99.90
31725;DHT22;18306;40.960;14.836;2022-12-29T01:29:25;9.80;99.90
31725;DHT22;18306;40.960;14.836;2022-12-29T01:31:53;9.70;99.90
31725;DHT22;18306;40.960;14.836;2022-12-29T01:34:20;9.70;99.90
31725;DHT22;18306;40.960;14.836;2022-12-29T01:36:50;9.60;99.90
31725;DHT22;18306;40.960;14.836;2022-12-29T01:39:17;9.70;99.90
31725;DHT22;18306;40.960;14.836;2022-12-29T01:41:44;9.60;99.90
31725;DHT22;18306;40.960;14.836;2022-12-29T01:44:50;9.80;99.90
31725;DHT22;18306;40.960;14.836;2022-12-29T01:49:56;9.90;99.90
31725;DHT22;18306;40.960;14.836;2022-12-29T01:52:26;10.00;99.90
31725;DHT22;18306;40.960;14.836;2022-12-29T01:54:56;10.00;99.90
31725;DHT22;18306;40.960;14.836;2022-12-29T01:57:28;10.00;99.90
31725;DHT22;18306;40.960;14.836;2022-12-29T02:00:11;9.90;99.90
31725;DHT22;18306;40.960;14.836;2022-12-29T02:02:45;9.80;99.90
31725;DHT22;18306;40.960;14.836;2022-12-29T02:05:25;9.70;99.90
31725;DHT22;18306;40.960;14.836;2022-12-29T02:07:54;9.60;99.90
31725;DHT22;18306;40.960;14.836;2022-12-29T02:10:23;9.40;99.90
31725;DHT22;18306;40.960;14.836;2022-12-29T02:12:51;9.40;99.90
31725;DHT22;18306;40.960;14.836;2022-12-29T02:15:34;9.40;99.90
31725;DHT22;18306;40.960;14.836;2022-12-29T02:23:45;9.10;99.90
31725;DHT22;18306;40.960;14.836;2022-12-29T02:29:21;9.20;99.90
31725;DHT22;18306;40.960;14.836;2022-12-29T02:32:20;9.40;99.90
31725;DHT22;18306;40.960;14.836;2022-12-29T02:35:04;9.50;99.90
31725;DHT22;18306;40.960;14.836;2022-12-29T02:37:45;9.50;99.90
31725;DHT22;18306;40.960;14.836;2022-12-29T02:40:39;9.50;99.90
31725;DHT22;18306;40.960;14.836;2022-12-29T02:43:23;9.50;99.90
31725;DHT22;18306;40.960;14.836;2022-12-29T02:45:58;9.50;99.90
31725;DHT22;18306;40.960;14.836;2022-12-29T02:48:52;9.50;99.90
31725;DHT22;18306;40.960;14.836;2022-12-29T02:51:32;9.60;99.90
31725;DHT22;18306;40.960;14.836;2022-12-29T02:54:01;9.50;99.90
31725;DHT22;18306;40.960;14.836;2022-12-29T02:56:48;9.50;99.90
31725;DHT22;18306;40.960;14.836;2022-12-29T02:59:16;9.60;99.90
31725;DHT22;18306;40.960;14.836;2022-12-29T03:11:00;9.60;99.90
31725;DHT22;18306;40.960;14.836;2022-12-29T03:13:46;9.60;99.90
31725;DHT22;18306;40.960;14.836;2022-12-29T03:16:47;9.60;99.90
31725;DHT22;18306;40.960;14.836;2022-12-29T03:19:40;9.70;99.90
31725;DHT22;18306;40.960;14.836;2022-12-29T03:22:17;9.60;99.90
31725;DHT22;18306;40.960;14.836;2022-12-29T03:27:51;9.50;99.90
31725;DHT22;18306;40.960;14.836;2022-12-29T03:30:21;9.50;99.90
31725;DHT22;18306;40.960;14.836;2022-12-29T03:32:53;9.60;99.90
31725;DHT22;18306;40.960;14.836;2022-12-29T03:35:25;9.60;99.90
31725;DHT22;18306;40.960;14.836;2022-12-29T03:38:02;9.60;99.90
31725;DHT22;18306;40.960;14.836;2022-12-29T03:40:33;9.60;99.90
31725;DHT22;18306;40.960;14.836;2022-12-29T03:43:02;9.70;99.90
31725;DHT22;18306;40.960;14.836;2022-12-29T03:45:31;9.70;99.90
31725;DHT22;18306;40.960;14.836;2022-12-29T03:47:58;9.70;99.90
31725;DHT22;18306;40.960;14.836;2022-12-29T03:50:26;9.60;99.90
31725;DHT22;18306;40.960;14.836;2022-12-29T03:52:54;9.40;99.90
31725;DHT22;18306;40.960;14.836;2022-12-29T03:55:21;9.30;99.90
31725;DHT22;18306;40.960;14.836;2022-12-29T03:57:48;9.30;99.90
31725;DHT22;18306;40.960;14.836;2022-12-29T04:00:21;9.40;99.90
31725;DHT22;18306;40.960;14.836;2022-12-29T04:02:50;9.50;99.90
31725;DHT22;18306;40.960;14.836;2022-12-29T04:05:22;9.60;99.90
31725;DHT22;18306;40.960;14.836;2022-12-29T04:07:53;9.70;99.90
31725;DHT22;18306;40.960;14.836;2022-12-29T04:10:20;9.70;99.90
31725;DHT22;18306;40.960;14.836;2022-12-29T04:12:49;9.60;99.90
31725;DHT22;18306;40.960;14.836;2022-12-29T04:15:17;9.60;99.90
31725;DHT22;18306;40.960;14.836;2022-12-29T04:17:44;9.70;99.90
31725;DHT22;18306;40.960;14.836;2022-12-29T04:20:12;9.80;99.90
31725;DHT22;18306;40.960;14.836;2022-12-29T04:23:04;9.90;99.90
31725;DHT22;18306;40.960;14.836;2022-12-29T04:25:34;9.90;99.90
31725;DHT22;18306;40.960;14.836;2022-12-29T04:28:02;9.90;99.90
31725;DHT22;18306;40.960;14.836;2022-12-29T04:31:05;9.90;99.90
31725;DHT22;18306;40.960;14.836;2022-12-29T04:33:39;9.80;99.90
31725;DHT22;18306;40.960;14.836;2022-12-29T04:36:06;9.70;99.90
31725;DHT22;18306;40.960;14.836;2022-12-29T04:38:34;9.60;99.90
31725;DHT22;18306;40.960;14.836;2022-12-29T04:41:04;9.40;99.90
31725;DHT22;18306;40.960;14.836;2022-12-29T04:43:34;9.30;99.90
31725;DHT22;18306;40.960;14.836;2022-12-29T04:46:37;9.30;99.90
31725;DHT22;18306;40.960;14.836;2022-12-29T04:49:18;8.90;99.90
31725;DHT22;18306;40.960;14.836;2022-12-29T04:51:56;8.70;99.90
31725;DHT22;18306;40.960;14.836;2022-12-29T04:54:24;8.60;99.90
31725;DHT22;18306;40.960;14.836;2022-12-29T04:57:00;8.60;99.90
31725;DHT22;18306;40.960;14.836;2022-12-29T04:59:27;8.50;99.90
31725;DHT22;18306;40.960;14.836;2022-12-29T05:01:58;8.30;99.90
31725;DHT22;18306;40.960;14.836;2022-12-29T05:04:25;8.30;99.90
31725;DHT22;18306;40.960;14.836;2022-12-29T05:06:53;8.40;99.90
31725;DHT22;18306;40.960;14.836;2022-12-29T05:09:20;8.50;99.90
31725;DHT22;18306;40.960;14.836;2022-12-29T05:11:47;8.50;99.90
31725;DHT22;18306;40.960;14.836;2022-12-29T05:14:15;8.60;99.90
31725;DHT22;18306;40.960;14.836;2022-12-29T05:16:43;8.60;99.90
31725;DHT22;18306;40.960;14.836;2022-12-29T05:19:10;8.70;99.90
31725;DHT22;18306;40.960;14.836;2022-12-29T05:21:40;8.70;99.90
31725;DHT22;18306;40.960;14.836;2022-12-29T05:24:09;8.90;99.90
31725;DHT22;18306;40.960;14.836;2022-12-29T05:26:36;8.80;99.90
31725;DHT22;18306;40.960;14.836;2022-12-29T05:29:22;9.00;99.90
31725;DHT22;18306;40.960;14.836;2022-12-29T05:31:49;8.90;99.90
31725;DHT22;18306;40.960;14.836;2022-12-29T05:34:16;8.70;99.90
31725;DHT22;18306;40.960;14.836;2022-12-29T05:36:44;8.60;99.90
31725;DHT22;18306;40.960;14.836;2022-12-29T05:39:12;8.60;99.90
31725;DHT22;18306;40.960;14.836;2022-12-29T05:41:39;8.70;99.90
31725;DHT22;18306;40.960;14.836;2022-12-29T05:44:27;8.80;99.90
31725;DHT22;18306;40.960;14.836;2022-12-29T05:47:12;8.70;99.90
31725;DHT22;18306;40.960;14.836;2022-12-29T05:49:46;8.80;99.90
31725;DHT22;18306;40.960;14.836;2022-12-29T05:52:22;8.70;99.90
31725;DHT22;18306;40.960;14.836;2022-12-29T05:54:49;8.70;99.90
31725;DHT22;18306;40.960;14.836;2022-12-29T05:57:19;8.70;99.90
31725;DHT22;18306;40.960;14.836;2022-12-29T05:59:55;8.80;99.90
31725;DHT22;18306;40.960;14.836;2022-12-29T06:02:22;8.80;99.90
31725;DHT22;18306;40.960;14.836;2022-12-29T06:04:49;8.90;99.90
31725;DHT22;18306;40.960;14.836;2022-12-29T06:07:17;8.90;99.90
31725;DHT22;18306;40.960;14.836;2022-12-29T06:09:47;8.90;99.90
31725;DHT22;18306;40.960;14.836;2022-12-29T06:12:14;8.80;99.90
31725;DHT22;18306;40.960;14.836;2022-12-29T06:14:44;8.80;99.90
31725;DHT22;18306;40.960;14.836;2022-12-29T06:17:11;8.80;99.90
31725;DHT22;18306;40.960;14.836;2022-12-29T06:19:38;8.70;99.90
31725;DHT22;18306;40.960;14.836;2022-12-29T06:22:06;8.80;99.90
31725;DHT22;18306;40.960;14.836;2022-12-29T06:24:35;8.90;99.90
31725;DHT22;18306;40.960;14.836;2022-12-29T06:27:03;8.90;99.90
31725;DHT22;18306;40.960;14.836;2022-12-29T06:29:30;8.90;99.90
31725;DHT22;18306;40.960;14.836;2022-12-29T06:31:58;8.90;99.90
31725;DHT22;18306;40.960;14.836;2022-12-29T06:34:25;8.80;99.90
31725;DHT22;18306;40.960;14.836;2022-12-29T06:36:53;8.80;99.90
31725;DHT22;18306;40.960;14.836;2022-12-29T06:39:20;8.90;99.90
31725;DHT22;18306;40.960;14.836;2022-12-29T06:42:02;8.90;99.90
31725;DHT22;18306;40.960;14.836;2022-12-29T06:44:53;9.00;99.90
31725;DHT22;18306;40.960;14.836;2022-12-29T06:47:35;9.00;99.90
31725;DHT22;18306;40.960;14.836;2022-12-29T06:50:27;9.00;99.90
31725;DHT22;18306;40.960;14.836;2022-12-29T06:53:06;9.00;99.90
31725;DHT22;18306;40.960;14.836;2022-12-29T06:55:39;9.00;99.90
31725;DHT22;18306;40.960;14.836;2022-12-29T06:58:16;9.00;99.90
31725;DHT22;18306;40.960;14.836;2022-12-29T07:00:51;9.10;99.90
31725;DHT22;18306;40.960;14.836;2022-12-29T07:03:22;9.10;99.90
31725;DHT22;18306;40.960;14.836;2022-12-29T07:05:52;9.10;99.90
31725;DHT22;18306;40.960;14.836;2022-12-29T07:08:21;9.10;99.90
31725;DHT22;18306;40.960;14.836;2022-12-29T07:10:48;9.00;99.90
31725;DHT22;18306;40.960;14.836;2022-12-29T07:13:15;8.90;99.90
31725;DHT22;18306;40.960;14.836;2022-12-29T07:15:42;8.90;99.90
31725;DHT22;18306;40.960;14.836;2022-12-29T07:18:09;9.00;99.90
31725;DHT22;18306;40.960;14.836;2022-12-29T07:20:37;9.10;99.90
31725;DHT22;18306;40.960;14.836;2022-12-29T07:23:04;9.10;99.90
31725;DHT22;18306;40.960;14.836;2022-12-29T07:25:31;9.10;99.90
31725;DHT22;18306;40.960;14.836;2022-12-29T07:27:58;9.10;99.90
31725;DHT22;18306;40.960;14.836;2022-12-29T07:30:25;9.00;99.90
31725;DHT22;18306;40.960;14.836;2022-12-29T07:32:53;9.00;99.90
31725;DHT22;18306;40.960;14.836;2022-12-29T07:35:25;9.00;99.90
31725;DHT22;18306;40.960;14.836;2022-12-29T07:37:52;9.30;99.90
31725;DHT22;18306;40.960;14.836;2022-12-29T07:40:25;9.10;99.90
31725;DHT22;18306;40.960;14.836;2022-12-29T07:42:52;8.90;99.90
31725;DHT22;18306;40.960;14.836;2022-12-29T07:45:31;8.90;99.90
31725;DHT22;18306;40.960;14.836;2022-12-29T07:48:08;8.90;99.90
31725;DHT22;18306;40.960;14.836;2022-12-29T07:50:36;8.80;99.90
31725;DHT22;18306;40.960;14.836;2022-12-29T07:53:04;8.80;99.90
31725;DHT22;18306;40.960;14.836;2022-12-29T07:55:31;8.70;99.90
31725;DHT22;18306;40.960;14.836;2022-12-29T07:58:03;8.60;99.90
31725;DHT22;18306;40.960;14.836;2022-12-29T08:00:30;8.70;99.90
31725;DHT22;18306;40.960;14.836;2022-12-29T08:02:59;8.80;99.90
31725;DHT22;18306;40.960;14.836;2022-12-29T08:05:26;8.90;99.90
31725;DHT22;18306;40.960;14.836;2022-12-29T08:07:53;9.10;99.90
31725;DHT22;18306;40.960;14.836;2022-12-29T08:10:20;9.20;99.90
31725;DHT22;18306;40.960;14.836;2022-12-29T08:12:48;9.30;99.90
31725;DHT22;18306;40.960;14.836;2022-12-29T08:15:16;9.40;99.90
31725;DHT22;18306;40.960;14.836;2022-12-29T08:17:43;9.50;99.90
31725;DHT22;18306;40.960;14.836;2022-12-29T08:20:10;9.70;99.90
31725;DHT22;18306;40.960;14.836;2022-12-29T08:22:38;9.80;99.90
31725;DHT22;18306;40.960;14.836;2022-12-29T08:25:05;10.10;99.90
31725;DHT22;18306;40.960;14.836;2022-12-29T08:27:36;10.40;99.90
31725;DHT22;18306;40.960;14.836;2022-12-29T08:30:09;10.70;99.90
31725;DHT22;18306;40.960;14.836;2022-12-29T08:32:38;10.80;99.90
31725;DHT22;18306;40.960;14.836;2022-12-29T08:35:05;10.90;99.90
31725;DHT22;18306;40.960;14.836;2022-12-29T08:37:33;11.00;99.90
31725;DHT22;18306;40.960;14.836;2022-12-29T08:40:00;11.20;99.90
31725;DHT22;18306;40.960;14.836;2022-12-29T08:42:31;11.00;99.90
31725;DHT22;18306;40.960;14.836;2022-12-29T08:44:59;10.80;99.90
31725;DHT22;18306;40.960;14.836;2022-12-29T08:47:27;10.80;99.90
31725;DHT22;18306;40.960;14.836;2022-12-29T08:49:54;10.80;99.90
31725;DHT22;18306;40.960;14.836;2022-12-29T08:52:21;10.80;99.90
31725;DHT22;18306;40.960;14.836;2022-12-29T08:54:49;11.00;99.90
31725;DHT22;18306;40.960;14.836;2022-12-29T08:57:16;11.10;99.90
31725;DHT22;18306;40.960;14.836;2022-12-29T09:00:04;11.20;99.90
31725;DHT22;18306;40.960;14.836;2022-12-29T09:02:31;11.40;99.90
31725;DHT22;18306;40.960;14.836;2022-12-29T09:04:59;11.60;99.90
31725;DHT22;18306;40.960;14.836;2022-12-29T09:07:27;11.80;99.90
31725;DHT22;18306;40.960;14.836;2022-12-29T09:09:55;12.10;99.90
31725;DHT22;18306;40.960;14.836;2022-12-29T09:12:23;12.20;99.90
31725;DHT22;18306;40.960;14.836;2022-12-29T09:14:58;12.30;99.90
31725;DHT22;18306;40.960;14.836;2022-12-29T09:17:27;12.40;99.90
31725;DHT22;18306;40.960;14.836;2022-12-29T09:20:17;12.60;99.90
31725;DHT22;18306;40.960;14.836;2022-12-29T09:22:45;12.90;99.90
31725;DHT22;18306;40.960;14.836;2022-12-29T09:25:14;13.00;99.90
31725;DHT22;18306;40.960;14.836;2022-12-29T09:27:43;13.20;99.90
31725;DHT22;18306;40.960;14.836;2022-12-29T09:30:12;13.30;99.90
31725;DHT22;18306;40.960;14.836;2022-12-29T09:32:41;13.50;99.90
31725;DHT22;18306;40.960;14.836;2022-12-29T09:35:12;13.60;99.90
31725;DHT22;18306;40.960;14.836;2022-12-29T09:37:39;13.70;99.90
31725;DHT22;18306;40.960;14.836;2022-12-29T09:40:09;13.70;99.90
31725;DHT22;18306;40.960;14.836;2022-12-29T09:45:55;14.00;99.90
31725;DHT22;18306;40.960;14.836;2022-12-29T09:48:32;14.10;99.90
31725;DHT22;18306;40.960;14.836;2022-12-29T09:51:03;14.20;99.90
31725;DHT22;18306;40.960;14.836;2022-12-29T09:53:37;14.40;99.90
31725;DHT22;18306;40.960;14.836;2022-12-29T09:56:07;14.40;99.90
31725;DHT22;18306;40.960;14.836;2022-12-29T09:58:43;14.40;99.90
31725;DHT22;18306;40.960;14.836;2022-12-29T10:01:42;14.50;99.90
31725;DHT22;18306;40.960;14.836;2022-12-29T10:04:10;14.60;99.90
31725;DHT22;18306;40.960;14.836;2022-12-29T10:09:25;14.80;99.90
31725;DHT22;18306;40.960;14.836;2022-12-29T10:12:16;15.00;99.90
31725;DHT22;18306;40.960;14.836;2022-12-29T10:17:27;15.40;99.90
31725;DHT22;18306;40.960;14.836;2022-12-29T10:22:59;15.50;99.90
31725;DHT22;18306;40.960;14.836;2022-12-29T10:25:35;15.70;99.90
31725;DHT22;18306;40.960;14.836;2022-12-29T10:28:33;15.70;99.90
31725;DHT22;18306;40.960;14.836;2022-12-29T10:31:05;15.70;99.90
31725;DHT22;18306;40.960;14.836;2022-12-29T10:33:37;15.80;99.90
31725;DHT22;18306;40.960;14.836;2022-12-29T10:36:17;15.70;99.90
31725;DHT22;18306;40.960;14.836;2022-12-29T10:39:30;15.70;99.90
31725;DHT22;18306;40.960;14.836;2022-12-29T10:42:09;15.70;99.90
31725;DHT22;18306;40.960;14.836;2022-12-29T10:44:38;15.80;99.90
31725;DHT22;18306;40.960;14.836;2022-12-29T10:47:15;15.70;99.90
31725;DHT22;18306;40.960;14.836;2022-12-29T10:49:46;15.70;99.90
31725;DHT22;18306;40.960;14.836;2022-12-29T10:52:22;15.80;99.90
31725;DHT22;18306;40.960;14.836;2022-12-29T10:57:55;16.00;99.90
31725;DHT22;18306;40.960;14.836;2022-12-29T11:00:26;16.10;99.90
31725;DHT22;18306;40.960;14.836;2022-12-29T11:06:07;16.20;99.90
31725;DHT22;18306;40.960;14.836;2022-12-29T11:08:41;16.10;99.90
31725;DHT22;18306;40.960;14.836;2022-12-29T11:11:23;16.10;99.90
31725;DHT22;18306;40.960;14.836;2022-12-29T11:13:57;16.30;99.90
31725;DHT22;18306;40.960;14.836;2022-12-29T11:16:29;16.40;99.90
31725;DHT22;18306;40.960;14.836;2022-12-29T11:18:58;16.30;99.90
31725;DHT22;18306;40.960;14.836;2022-12-29T11:21:35;16.30;99.90
31725;DHT22;18306;40.960;14.836;2022-12-29T11:24:26;16.30;99.90
31725;DHT22;18306;40.960;14.836;2022-12-29T11:29:54;16.30;99.90
31725;DHT22;18306;40.960;14.836;2022-12-29T11:32:27;16.50;99.90
31725;DHT22;18306;40.960;14.836;2022-12-29T11:34:57;16.40;99.90
31725;DHT22;18306;40.960;14.836;2022-12-29T11:37:32;16.50;99.90
31725;DHT22;18306;40.960;14.836;2022-12-29T11:40:17;16.50;99.90
31725;DHT22;18306;40.960;14.836;2022-12-29T11:43:04;16.50;99.90
31725;DHT22;18306;40.960;14.836;2022-12-29T11:45:35;16.50;99.90
31725;DHT22;18306;40.960;14.836;2022-12-29T11:48:12;16.50;99.90
31725;DHT22;18306;40.960;14.836;2022-12-29T11:50:48;16.50;99.90
31725;DHT22;18306;40.960;14.836;2022-12-29T11:53:39;16.50;99.90
31725;DHT22;18306;40.960;14.836;2022-12-29T11:56:15;16.50;99.90
31725;DHT22;18306;40.960;14.836;2022-12-29T11:58:43;16.50;99.90
31725;DHT22;18306;40.960;14.836;2022-12-29T12:01:18;16.50;99.90
31725;DHT22;18306;40.960;14.836;2022-12-29T12:04:07;16.50;99.90
31725;DHT22;18306;40.960;14.836;2022-12-29T12:06:43;16.60;99.90
31725;DHT22;18306;40.960;14.836;2022-12-29T12:09:56;16.50;99.90
31725;DHT22;18306;40.960;14.836;2022-12-29T12:15:29;16.50;99.90
31725;DHT22;18306;40.960;14.836;2022-12-29T12:18:16;16.50;99.90
31725;DHT22;18306;40.960;14.836;2022-12-29T12:20:54;16.30;99.90
31725;DHT22;18306;40.960;14.836;2022-12-29T12:23:36;16.20;99.90
31725;DHT22;18306;40.960;14.836;2022-12-29T12:26:14;16.20;99.90
31725;DHT22;18306;40.960;14.836;2022-12-29T12:28:48;16.30;99.90
31725;DHT22;18306;40.960;14.836;2022-12-29T12:31:44;16.30;99.90
31725;DHT22;18306;40.960;14.836;2022-12-29T12:34:22;16.30;99.90
31725;DHT22;18306;40.960;14.836;2022-12-29T12:45:49;16.00;99.90
31725;DHT22;18306;40.960;14.836;2022-12-29T12:48:38;16.30;99.90
31725;DHT22;18306;40.960;14.836;2022-12-29T13:00:23;16.30;99.90
31725;DHT22;18306;40.960;14.836;2022-12-29T13:09:06;16.10;99.90
31725;DHT22;18306;40.960;14.836;2022-12-29T13:25:34;16.00;99.90
31725;DHT22;18306;40.960;14.836;2022-12-29T13:36:48;16.10;99.90
31725;DHT22;18306;40.960;14.836;2022-12-29T13:41:51;16.10;99.90
31725;DHT22;18306;40.960;14.836;2022-12-29T13:44:31;16.10;99.90
31725;DHT22;18306;40.960;14.836;2022-12-29T13:47:15;16.10;99.90
31725;DHT22;18306;40.960;14.836;2022-12-29T13:49:47;16.00;99.90
31725;DHT22;18306;40.960;14.836;2022-12-29T13:55:26;16.10;99.90
31725;DHT22;18306;40.960;14.836;2022-12-29T14:01:00;17.10;99.90
31725;DHT22;18306;40.960;14.836;2022-12-29T14:06:27;16.10;99.90
31725;DHT22;18306;40.960;14.836;2022-12-29T14:09:00;16.00;99.90
31725;DHT22;18306;40.960;14.836;2022-12-29T14:11:36;15.90;99.90
31725;DHT22;18306;40.960;14.836;2022-12-29T14:14:21;15.80;99.90
31725;DHT22;18306;40.960;14.836;2022-12-29T14:16:54;16.00;99.90
31725;DHT22;18306;40.960;14.836;2022-12-29T14:19:44;16.00;99.90
31725;DHT22;18306;40.960;14.836;2022-12-29T14:22:28;15.90;99.90
31725;DHT22;18306;40.960;14.836;2022-12-29T14:28:30;16.00;99.90
31725;DHT22;18306;40.960;14.836;2022-12-29T14:36:42;16.00;99.90
31725;DHT22;18306;40.960;14.836;2022-12-29T14:39:40;16.10;99.90
31725;DHT22;18306;40.960;14.836;2022-12-29T14:44:58;16.30;99.90
31725;DHT22;18306;40.960;14.836;2022-12-29T14:47:38;16.10;99.90
31725;DHT22;18306;40.960;14.836;2022-12-29T14:52:58;15.90;99.90
31725;DHT22;18306;40.960;14.836;2022-12-29T14:58:26;15.90;99.90
31725;DHT22;18306;40.960;14.836;2022-12-29T15:01:01;15.80;99.90
31725;DHT22;18306;40.960;14.836;2022-12-29T15:03:46;15.80;99.90
31725;DHT22;18306;40.960;14.836;2022-12-29T15:06:18;15.80;99.90
31725;DHT22;18306;40.960;14.836;2022-12-29T15:15:01;15.70;99.90
31725;DHT22;18306;40.960;14.836;2022-12-29T15:17:49;15.70;99.90
31725;DHT22;18306;40.960;14.836;2022-12-29T15:20:30;15.80;99.90
31725;DHT22;18306;40.960;14.836;2022-12-29T15:23:02;15.60;99.90
31725;DHT22;18306;40.960;14.836;2022-12-29T15:25:31;15.50;99.90
31725;DHT22;18306;40.960;14.836;2022-12-29T15:28:10;15.50;99.90
31725;DHT22;18306;40.960;14.836;2022-12-29T15:31:28;16.00;99.90
31725;DHT22;18306;40.960;14.836;2022-12-29T15:34:22;15.60;99.90
31725;DHT22;18306;40.960;14.836;2022-12-29T15:37:15;15.60;99.90
31725;DHT22;18306;40.960;14.836;2022-12-29T15:39:45;15.60;99.90
31725;DHT22;18306;40.960;14.836;2022-12-29T15:44:55;15.50;99.90
31725;DHT22;18306;40.960;14.836;2022-12-29T15:47:28;15.50;99.90
31725;DHT22;18306;40.960;14.836;2022-12-29T15:50:03;15.60;99.90
31725;DHT22;18306;40.960;14.836;2022-12-29T15:52:35;15.60;99.90
31725;DHT22;18306;40.960;14.836;2022-12-29T15:57:56;15.50;99.90
31725;DHT22;18306;40.960;14.836;2022-12-29T16:00:37;15.50;99.90
31725;DHT22;18306;40.960;14.836;2022-12-29T16:03:10;15.60;99.90
31725;DHT22;18306;40.960;14.836;2022-12-29T16:05:51;15.60;99.90
31725;DHT22;18306;40.960;14.836;2022-12-29T16:08:40;15.70;99.90
31725;DHT22;18306;40.960;14.836;2022-12-29T16:11:33;15.80;99.90
31725;DHT22;18306;40.960;14.836;2022-12-29T16:14:30;15.90;99.90
31725;DHT22;18306;40.960;14.836;2022-12-29T16:17:03;16.10;99.90
31725;DHT22;18306;40.960;14.836;2022-12-29T16:19:49;16.20;99.90
31725;DHT22;18306;40.960;14.836;2022-12-29T16:22:29;16.30;99.90
31725;DHT22;18306;40.960;14.836;2022-12-29T16:25:19;16.30;99.90
31725;DHT22;18306;40.960;14.836;2022-12-29T16:27:47;16.30;99.90
31725;DHT22;18306;40.960;14.836;2022-12-29T16:30:22;16.40;99.90
31725;DHT22;18306;40.960;14.836;2022-12-29T16:32:52;16.20;99.90
31725;DHT22;18306;40.960;14.836;2022-12-29T16:35:27;16.00;99.90
31725;DHT22;18306;40.960;14.836;2022-12-29T16:38:18;15.80;99.90
31725;DHT22;18306;40.960;14.836;2022-12-29T16:40:55;15.60;99.90
31725;DHT22;18306;40.960;14.836;2022-12-29T16:43:28;15.50;99.90
31725;DHT22;18306;40.960;14.836;2022-12-29T16:48:28;15.40;99.90
31725;DHT22;18306;40.960;14.836;2022-12-29T16:51:13;15.50;99.90
31725;DHT22;18306;40.960;14.836;2022-12-29T16:53:48;15.50;99.90
31725;DHT22;18306;40.960;14.836;2022-12-29T16:56:33;15.40;99.90
31725;DHT22;18306;40.960;14.836;2022-12-29T17:01:39;15.30;99.90
31725;DHT22;18306;40.960;14.836;2022-12-29T17:04:39;15.40;99.90
31725;DHT22;18306;40.960;14.836;2022-12-29T17:07:16;15.30;99.90
31725;DHT22;18306;40.960;14.836;2022-12-29T17:09:47;15.30;99.90
31725;DHT22;18306;40.960;14.836;2022-12-29T17:12:27;15.30;99.90
31725;DHT22;18306;40.960;14.836;2022-12-29T17:15:10;15.40;99.90
31725;DHT22;18306;40.960;14.836;2022-12-29T17:17:45;15.40;99.90
31725;DHT22;18306;40.960;14.836;2022-12-29T17:20:21;15.40;99.90
31725;DHT22;18306;40.960;14.836;2022-12-29T17:22:52;15.20;99.90
31725;DHT22;18306;40.960;14.836;2022-12-29T17:25:27;15.00;99.90
31725;DHT22;18306;40.960;14.836;2022-12-29T17:28:18;15.10;99.90
31725;DHT22;18306;40.960;14.836;2022-12-29T17:30:47;15.20;99.90
31725;DHT22;18306;40.960;14.836;2022-12-29T17:33:19;15.10;99.90
31725;DHT22;18306;40.960;14.836;2022-12-29T17:35:54;14.90;99.90
31725;DHT22;18306;40.960;14.836;2022-12-29T17:38:27;14.70;99.90
31725;DHT22;18306;40.960;14.836;2022-12-29T17:41:00;14.70;99.90
31725;DHT22;18306;40.960;14.836;2022-12-29T17:43:27;14.60;99.90
31725;DHT22;18306;40.960;14.836;2022-12-29T17:46:00;14.50;99.90
31725;DHT22;18306;40.960;14.836;2022-12-29T17:48:27;14.50;99.90
31725;DHT22;18306;40.960;14.836;2022-12-29T17:50:56;14.50;99.90
31725;DHT22;18306;40.960;14.836;2022-12-29T17:53:27;14.60;99.90
31725;DHT22;18306;40.960;14.836;2022-12-29T17:55:57;14.60;99.90
31725;DHT22;18306;40.960;14.836;2022-12-29T17:58:29;14.70;99.90
31725;DHT22;18306;40.960;14.836;2022-12-29T18:01:12;14.60;99.90
31725;DHT22;18306;40.960;14.836;2022-12-29T18:03:40;14.50;99.90
31725;DHT22;18306;40.960;14.836;2022-12-29T18:06:11;14.40;99.90
31725;DHT22;18306;40.960;14.836;2022-12-29T18:08:40;14.40;99.90
31725;DHT22;18306;40.960;14.836;2022-12-29T18:11:23;14.30;99.90
31725;DHT22;18306;40.960;14.836;2022-12-29T18:13:55;14.30;99.90
31725;DHT22;18306;40.960;14.836;2022-12-29T18:16:23;14.20;99.90
31725;DHT22;18306;40.960;14.836;2022-12-29T18:18:51;14.20;99.90
31725;DHT22;18306;40.960;14.836;2022-12-29T18:21:21;14.20;99.90
31725;DHT22;18306;40.960;14.836;2022-12-29T18:23:52;14.20;99.90
31725;DHT22;18306;40.960;14.836;2022-12-29T18:26:24;14.10;99.90
31725;DHT22;18306;40.960;14.836;2022-12-29T18:28:54;14.20;99.90
31725;DHT22;18306;40.960;14.836;2022-12-29T18:31:27;14.00;99.90